This is the latest recevied weather packets stored in our database for station/object DL2GPS-3. If no packets are shown the sender has not sent any weather packets the latest 10 day(s).
| Time | Temp. | Humidity | Pressure | Rain* | Wind** | Luminosity | Snow |
|---|---|---|---|---|---|---|---|
| 1788115052 | 17.22° C | 86% | 1019.2 hPa | - | - | - | - |
| 1788114448 | 17.22° C | 84% | 1019.2 hPa | - | - | - | - |
| 1788113843 | 17.78° C | 80% | 1019.2 hPa | - | - | - | - |
| 1788113237 | 18.33° C | 77% | 1019.2 hPa | - | - | - | - |
| 1788112632 | 18.89° C | 75% | 1019.3 hPa | - | - | - | - |
| 1788112027 | 18.89° C | 73% | 1019.2 hPa | - | - | - | - |
| 1788111422 | 19.44° C | 72% | 1019.2 hPa | - | - | - | - |
| 1788110818 | 19.44° C | 71% | 1019.3 hPa | - | - | - | - |
| 1788110212 | 19.44° C | 68% | 1019.2 hPa | - | - | - | - |
| 1788109608 | 20° C | 67% | 1019.2 hPa | - | - | - | - |
| 1788109004 | 20.56° C | 65% | 1019.3 hPa | - | - | - | - |
| 1788108398 | 20.56° C | 64% | 1019.3 hPa | - | - | - | - |
| 1788107793 | 21.11° C | 62% | 1019.3 hPa | - | - | - | - |
| 1788107188 | 21.67° C | 61% | 1019.3 hPa | - | - | - | - |
| 1788106584 | 22.22° C | 61% | 1019.3 hPa | - | - | - | - |
| 1788105979 | 22.22° C | 60% | 1019.3 hPa | - | - | - | - |
| 1788105374 | 22.22° C | 61% | 1019.2 hPa | - | - | - | - |
| 1788104768 | 22.22° C | 62% | 1019.4 hPa | - | - | - | - |
| 1788104165 | 22.22° C | 62% | 1019.4 hPa | - | - | - | - |
| 1788103564 | 22.78° C | 61% | 1019.4 hPa | - | - | - | - |
| 1788102963 | 22.78° C | 61% | 1019.4 hPa | - | - | - | - |
| 1788102362 | 22.22° C | 64% | 1019.5 hPa | - | - | - | - |
| 1788101760 | 21.67° C | 67% | 1019.6 hPa | - | - | - | - |
| 1788101160 | 23.33° C | 61% | 1019.5 hPa | - | - | - | - |
| 1788100559 | 23.33° C | 64% | 1019.6 hPa | - | - | - | - |
* Rain since midnight (hover to see other rain measurements)
** Current wind speed in m/s (hover to see current wind gust speed)